createdAt,value
2023-03-12T00:01:41.323Z,49.18
2023-03-12T00:04:42.795Z,49.01
2023-03-12T00:07:44.455Z,48.72
2023-03-12T00:10:45.959Z,48.67
2023-03-12T00:13:55.137Z,48.89
2023-03-12T00:16:56.643Z,49.33
2023-03-12T00:19:58.520Z,49.18
2023-03-12T00:22:59.993Z,49.21
2023-03-12T00:26:15.432Z,49.12
2023-03-12T00:29:17.017Z,48.94
2023-03-12T00:32:18.511Z,49.18
2023-03-12T00:35:20.018Z,48.98
2023-03-12T00:38:22.167Z,48.94
2023-03-12T00:41:25.329Z,48.78
2023-03-12T00:44:27.162Z,48.69
2023-03-12T00:47:28.651Z,48.42
2023-03-12T00:50:30.213Z,48.68
2023-03-12T00:53:31.778Z,48.68
2023-03-12T00:56:33.414Z,48.92
2023-03-12T00:59:34.973Z,48.79
2023-03-12T01:02:38.119Z,48.28
2023-03-12T01:05:40.794Z,48.40
2023-03-12T01:08:42.527Z,48.56
2023-03-12T01:11:44.050Z,48.61
2023-03-12T01:14:45.682Z,48.86
2023-03-12T01:17:47.205Z,48.81
2023-03-12T01:20:48.825Z,49.13
2023-03-12T01:23:51.010Z,49.30
2023-03-12T01:26:52.508Z,49.36
2023-03-12T01:29:54.178Z,49.40
2023-03-12T01:32:55.694Z,49.36
2023-03-12T01:35:57.291Z,48.53
2023-03-12T01:38:59.662Z,49.01
2023-03-12T01:42:01.908Z,49.13
2023-03-12T01:45:05.192Z,49.21
2023-03-12T01:48:08.014Z,48.76
2023-03-12T01:51:12.311Z,49.30
2023-03-12T01:54:19.262Z,49.22
2023-03-12T01:57:26.768Z,48.89
2023-03-12T02:00:28.364Z,49.03
2023-03-12T02:03:32.764Z,49.09
2023-03-12T02:06:43.803Z,48.67
2023-03-12T02:09:48.716Z,49.31
2023-03-12T02:12:51.056Z,49.76
2023-03-12T02:15:52.547Z,49.46
2023-03-12T02:18:55.779Z,49.70
2023-03-12T02:21:59.327Z,49.89
2023-03-12T02:25:19.220Z,49.93
2023-03-12T02:28:25.222Z,50.24
2023-03-12T02:31:33.206Z,50.67
2023-03-12T02:34:35.927Z,51.00
2023-03-12T02:37:47.848Z,50.67
2023-03-12T02:40:51.101Z,51.53
2023-03-12T02:44:04.438Z,52.06
2023-03-12T02:47:06.205Z,52.09
2023-03-12T02:50:08.496Z,52.63
2023-03-12T02:53:10.063Z,53.13
2023-03-12T02:56:11.618Z,53.56
2023-03-12T02:59:14.381Z,53.79
2023-03-12T03:02:17.926Z,53.95
2023-03-12T03:05:20.460Z,53.66
2023-03-12T03:08:22.264Z,53.94
2023-03-12T03:11:24.785Z,54.30
2023-03-12T03:14:29.031Z,54.74
2023-03-12T03:17:30.734Z,55.15
2023-03-12T03:20:32.625Z,55.46
2023-03-12T03:23:34.723Z,54.99
2023-03-12T03:26:36.314Z,56.00
2023-03-12T03:29:37.993Z,55.95
2023-03-12T03:32:39.647Z,56.00
2023-03-12T03:35:41.342Z,55.84
2023-03-12T03:38:46.997Z,55.89
2023-03-12T03:41:48.764Z,56.26
2023-03-12T03:44:53.086Z,55.93
2023-03-12T03:47:54.760Z,55.95
2023-03-12T03:51:01.903Z,56.19
2023-03-12T03:54:05.396Z,56.21
2023-03-12T03:57:07.150Z,56.30
2023-03-12T04:00:09.918Z,56.38
2023-03-12T04:03:15.455Z,56.48
2023-03-12T04:06:17.054Z,56.49
2023-03-12T04:09:18.734Z,57.30
2023-03-12T04:12:21.339Z,56.71
2023-03-12T04:15:22.903Z,56.57
2023-03-12T04:18:24.685Z,56.51
2023-03-12T04:21:26.478Z,56.98
2023-03-12T04:24:28.006Z,56.72
2023-03-12T04:27:29.708Z,56.84
2023-03-12T04:30:31.551Z,57.30
2023-03-12T04:33:36.621Z,57.08
2023-03-12T04:36:38.631Z,56.97
2023-03-12T04:39:41.773Z,57.51
2023-03-12T04:42:43.396Z,57.60
2023-03-12T04:45:45.216Z,57.33
2023-03-12T04:48:46.898Z,57.25
2023-03-12T04:51:49.632Z,57.23
2023-03-12T04:54:53.594Z,57.29
2023-03-12T04:57:55.394Z,57.26
2023-03-12T05:00:58.662Z,57.69
2023-03-12T05:04:00.448Z,57.93
2023-03-12T05:07:02.392Z,58.14
2023-03-12T05:10:04.673Z,58.08
2023-03-12T05:13:14.179Z,58.35
2023-03-12T05:16:16.712Z,58.73
2023-03-12T05:19:18.554Z,59.31
2023-03-12T05:22:20.127Z,59.68
2023-03-12T05:25:21.857Z,60.67
2023-03-12T05:28:28.494Z,63.79
2023-03-12T05:31:35.245Z,65.12
2023-03-12T05:34:38.573Z,66.10
2023-03-12T05:37:42.796Z,64.87
2023-03-12T05:40:53.605Z,64.42
2023-03-12T05:43:57.232Z,64.67
2023-03-12T05:46:59.223Z,64.91
2023-03-12T05:50:01.769Z,65.46
2023-03-12T05:53:04.429Z,64.94
2023-03-12T05:56:09.303Z,65.42
2023-03-12T05:59:10.989Z,69.00
2023-03-12T06:02:14.485Z,68.91
2023-03-12T06:05:16.118Z,59.40
2023-03-12T06:08:17.570Z,59.47
2023-03-12T06:11:19.079Z,59.93
2023-03-12T06:14:20.632Z,59.13
2023-03-12T06:17:22.878Z,59.04
2023-03-12T06:20:24.395Z,58.80
2023-03-12T06:23:25.871Z,59.36
2023-03-12T06:26:28.487Z,58.87
2023-03-12T06:29:29.991Z,58.74
2023-03-12T06:32:31.604Z,58.89
2023-03-12T06:35:34.300Z,58.90
2023-03-12T06:38:36.703Z,58.48
2023-03-12T06:41:38.218Z,58.76
2023-03-12T06:44:39.757Z,58.51
2023-03-12T06:47:41.258Z,58.57
2023-03-12T06:50:43.364Z,58.08
2023-03-12T06:53:45.451Z,58.38
2023-03-12T06:56:47.062Z,58.47
2023-03-12T06:59:50.571Z,57.83
2023-03-12T07:02:52.271Z,57.87
2023-03-12T07:05:56.268Z,57.53
2023-03-12T07:08:57.850Z,57.86
2023-03-12T07:11:59.334Z,57.42
2023-03-12T07:15:00.849Z,57.22
2023-03-12T07:18:07.472Z,57.94
2023-03-12T07:21:09.022Z,61.89
2023-03-12T07:24:10.674Z,61.55
2023-03-12T07:27:12.189Z,61.61
2023-03-12T07:30:13.908Z,61.70
2023-03-12T07:33:17.144Z,61.88
2023-03-12T07:36:18.815Z,61.89
2023-03-12T07:39:20.599Z,61.63
2023-03-12T07:42:22.945Z,62.93
2023-03-12T07:45:25.105Z,62.27
2023-03-12T07:48:26.837Z,62.34
2023-03-12T07:51:28.534Z,63.52
2023-03-12T07:54:30.709Z,63.78
2023-03-12T07:57:32.363Z,64.03
2023-03-12T08:00:33.941Z,65.11
2023-03-12T08:03:35.742Z,64.64
2023-03-12T08:06:38.733Z,64.72
2023-03-12T08:09:40.666Z,63.06
2023-03-12T08:12:42.152Z,63.20
2023-03-12T08:15:44.165Z,63.76
2023-03-12T08:18:45.668Z,64.65
2023-03-12T08:21:47.186Z,64.79
2023-03-12T08:24:48.936Z,64.50
2023-03-12T08:27:50.419Z,64.81
2023-03-12T08:30:53.967Z,65.04
2023-03-12T08:33:55.508Z,65.09
2023-03-12T08:36:57.090Z,65.01
2023-03-12T08:39:59.576Z,64.95
2023-03-12T08:43:01.208Z,62.45
2023-03-12T08:46:03.886Z,61.36
2023-03-12T08:49:05.444Z,61.39
2023-03-12T08:52:07.104Z,60.61
2023-03-12T08:55:10.427Z,60.68
2023-03-12T08:58:12.065Z,60.86
2023-03-12T09:01:14.059Z,61.07
2023-03-12T09:04:16.458Z,61.51
2023-03-12T09:07:22.247Z,61.94
2023-03-12T09:10:25.160Z,62.16
2023-03-12T09:13:40.546Z,62.37
2023-03-12T09:16:49.203Z,62.11
2023-03-12T09:19:50.745Z,61.73
2023-03-12T09:22:52.407Z,62.20
2023-03-12T09:25:54.845Z,62.19
2023-03-12T09:28:57.913Z,61.70
2023-03-12T09:31:59.513Z,61.59
2023-03-12T09:35:01.054Z,60.99
2023-03-12T09:38:04.021Z,60.53
2023-03-12T09:41:06.713Z,60.57
2023-03-12T09:44:29.416Z,60.51
2023-03-12T09:47:34.871Z,60.49
2023-03-12T09:50:43.587Z,60.43
2023-03-12T09:53:49.348Z,59.32
2023-03-12T09:56:54.962Z,59.19
2023-03-12T09:59:57.092Z,59.22
2023-03-12T10:03:12.675Z,58.65
2023-03-12T10:06:20.394Z,59.12
2023-03-12T10:09:46.685Z,59.16
2023-03-12T10:13:05.237Z,58.74
2023-03-12T10:16:18.558Z,58.52
2023-03-12T10:19:38.071Z,58.98
2023-03-12T10:23:06.837Z,58.30
2023-03-12T10:26:32.183Z,58.69
2023-03-12T10:29:38.961Z,58.36
2023-03-12T10:32:52.058Z,59.10
2023-03-12T10:35:54.912Z,58.66
2023-03-12T10:38:56.422Z,58.50
2023-03-12T10:42:00.378Z,58.15
2023-03-12T10:45:22.569Z,57.49
2023-03-12T10:48:25.942Z,57.13
2023-03-12T10:51:27.425Z,56.37
2023-03-12T10:54:40.577Z,55.72
2023-03-12T10:57:42.633Z,55.24
2023-03-12T11:00:56.735Z,54.92
2023-03-12T11:04:26.177Z,55.22
2023-03-12T11:07:34.097Z,54.38
2023-03-12T11:10:46.819Z,54.16
2023-03-12T11:14:07.290Z,53.72
2023-03-12T11:17:24.931Z,53.17
2023-03-12T11:20:29.162Z,52.99
2023-03-12T11:23:31.247Z,52.54
2023-03-12T11:26:51.695Z,50.88
2023-03-12T11:29:54.295Z,52.20
2023-03-12T11:32:57.954Z,51.45
2023-03-12T11:36:04.285Z,51.29
2023-03-12T11:39:20.662Z,51.27
2023-03-12T11:42:58.396Z,52.18
2023-03-12T11:46:17.851Z,52.14
2023-03-12T11:49:49.773Z,51.58
2023-03-12T11:53:18.038Z,51.71
2023-03-12T11:56:46.439Z,51.38
2023-03-12T12:00:09.118Z,51.21
2023-03-12T12:03:31.922Z,51.13
2023-03-12T12:06:40.947Z,51.61
2023-03-12T12:10:04.632Z,51.90
2023-03-12T12:13:28.140Z,51.51
2023-03-12T12:16:29.714Z,51.22
2023-03-12T12:20:00.223Z,50.60
2023-03-12T12:23:07.519Z,50.89
2023-03-12T12:26:13.040Z,50.25
2023-03-12T12:29:25.825Z,48.35
2023-03-12T12:32:48.995Z,47.55
2023-03-12T12:35:51.040Z,46.95
2023-03-12T12:39:18.493Z,46.79
2023-03-12T12:42:25.992Z,47.79
2023-03-12T12:45:30.893Z,48.10
2023-03-12T12:48:42.131Z,47.79
2023-03-12T12:51:49.066Z,47.29
2023-03-12T12:54:54.734Z,46.36
2023-03-12T12:58:11.649Z,46.30
2023-03-12T13:01:16.110Z,45.98
2023-03-12T13:04:26.891Z,45.46
2023-03-12T13:07:31.156Z,45.16
2023-03-12T13:10:32.712Z,44.94
2023-03-12T13:13:34.394Z,44.50
2023-03-12T13:16:40.033Z,44.41
2023-03-12T13:19:51.965Z,44.89
2023-03-12T13:23:14.014Z,45.70
2023-03-12T13:26:22.745Z,44.81
2023-03-12T13:29:31.168Z,44.91
2023-03-12T13:32:35.510Z,45.32
2023-03-12T13:35:39.583Z,45.75
2023-03-12T13:38:53.522Z,44.98
2023-03-12T13:41:56.496Z,44.93
2023-03-12T13:45:21.445Z,44.67
2023-03-12T13:48:25.074Z,44.26
2023-03-12T13:51:27.056Z,43.57
2023-03-12T13:54:33.203Z,44.16
2023-03-12T13:57:41.130Z,44.94
2023-03-12T14:01:01.260Z,45.11
2023-03-12T14:04:08.918Z,45.25
2023-03-12T14:07:32.375Z,44.08
2023-03-12T14:11:00.174Z,42.45
2023-03-12T14:14:24.125Z,41.25
2023-03-12T14:17:28.220Z,41.90
2023-03-12T14:20:30.467Z,41.36
2023-03-12T14:23:39.587Z,38.99
2023-03-12T14:26:41.333Z,37.32
2023-03-12T14:29:55.214Z,38.72
2023-03-12T14:33:01.326Z,39.97
2023-03-12T14:36:15.007Z,40.50
2023-03-12T14:39:28.736Z,40.38
2023-03-12T14:42:33.831Z,40.86
2023-03-12T14:45:40.033Z,40.68
2023-03-12T14:48:41.857Z,40.30
2023-03-12T14:51:43.694Z,39.80
2023-03-12T14:54:57.670Z,39.88
2023-03-12T14:58:18.618Z,39.16
2023-03-12T15:01:27.022Z,39.48
2023-03-12T15:04:29.957Z,39.35
2023-03-12T15:07:36.041Z,40.31
2023-03-12T15:10:39.165Z,41.31
2023-03-12T15:13:43.351Z,41.75
2023-03-12T15:16:45.566Z,42.77
2023-03-12T15:19:48.955Z,43.48
2023-03-12T15:22:52.232Z,43.50
2023-03-12T15:26:15.302Z,44.05
2023-03-12T15:29:26.510Z,43.99
2023-03-12T15:32:30.605Z,43.42
2023-03-12T15:35:32.677Z,44.16
2023-03-12T15:38:38.209Z,44.68
2023-03-12T15:41:45.378Z,44.81
2023-03-12T15:44:57.469Z,44.94
2023-03-12T15:47:59.059Z,44.35
2023-03-12T15:51:00.920Z,43.95
2023-03-12T15:54:14.540Z,44.29
2023-03-12T15:57:24.190Z,44.04
2023-03-12T16:00:29.514Z,43.93
2023-03-12T16:03:31.064Z,43.28
2023-03-12T16:06:32.733Z,43.05
2023-03-12T16:09:35.102Z,43.40
2023-03-12T16:12:38.111Z,43.72
2023-03-12T16:15:40.023Z,43.84
2023-03-12T16:18:42.847Z,44.45
2023-03-12T16:21:45.607Z,44.46
2023-03-12T16:24:47.104Z,44.85
2023-03-12T16:27:55.153Z,45.36
2023-03-12T16:30:56.748Z,45.78
2023-03-12T16:33:59.011Z,46.15
2023-03-12T16:37:01.057Z,46.12
2023-03-12T16:40:04.122Z,46.03
2023-03-12T16:43:07.593Z,45.57
2023-03-12T16:46:09.728Z,45.39
2023-03-12T16:49:14.581Z,46.08
2023-03-12T16:52:24.420Z,46.63
2023-03-12T16:55:28.636Z,46.24
2023-03-12T16:58:30.286Z,46.52
2023-03-12T17:01:32.117Z,46.67
2023-03-12T17:04:33.782Z,46.88
2023-03-12T17:07:35.727Z,47.05
2023-03-12T17:10:37.235Z,46.90
2023-03-12T17:13:38.723Z,47.39
2023-03-12T17:16:40.283Z,47.84
2023-03-12T17:19:41.766Z,47.75
2023-03-12T17:22:43.394Z,48.15
2023-03-12T17:25:45.540Z,48.42
2023-03-12T17:28:47.225Z,48.51
2023-03-12T17:31:48.875Z,48.97
2023-03-12T17:34:59.709Z,48.97
2023-03-12T17:38:01.200Z,49.20
2023-03-12T17:41:09.370Z,48.86
2023-03-12T17:44:15.901Z,48.99
2023-03-12T17:47:17.419Z,49.26
2023-03-12T17:50:19.273Z,48.98
2023-03-12T17:53:20.767Z,49.35
2023-03-12T17:56:22.254Z,49.40
2023-03-12T17:59:23.741Z,49.38
2023-03-12T18:02:25.351Z,49.25
2023-03-12T18:05:27.093Z,49.80
2023-03-12T18:08:28.904Z,49.97
2023-03-12T18:11:30.377Z,50.61
2023-03-12T18:14:32.208Z,50.94
2023-03-12T18:17:33.982Z,50.85
2023-03-12T18:20:39.469Z,51.30
2023-03-12T18:23:42.564Z,51.94
2023-03-12T18:26:45.241Z,51.19
2023-03-12T18:29:46.817Z,51.21
2023-03-12T18:32:48.354Z,51.51
2023-03-12T18:35:50.781Z,51.28
2023-03-12T18:38:53.128Z,51.48
2023-03-12T18:41:55.706Z,51.45
2023-03-12T18:44:57.140Z,51.54
2023-03-12T18:47:58.694Z,51.52
2023-03-12T18:51:00.258Z,51.84
2023-03-12T18:54:01.911Z,51.81
2023-03-12T18:57:03.441Z,51.65
2023-03-12T19:00:06.273Z,51.59
2023-03-12T19:03:09.239Z,51.19
2023-03-12T19:06:14.235Z,51.14
2023-03-12T19:09:15.728Z,50.90
2023-03-12T19:12:17.168Z,50.50
2023-03-12T19:15:19.566Z,50.18
2023-03-12T19:18:21.054Z,50.00
2023-03-12T19:21:23.104Z,50.22
2023-03-12T19:24:24.771Z,50.09
2023-03-12T19:27:28.114Z,50.14
2023-03-12T19:30:32.978Z,49.91
2023-03-12T19:33:34.844Z,49.84
2023-03-12T19:36:36.397Z,49.95
2023-03-12T19:39:37.829Z,49.62
2023-03-12T19:42:39.336Z,49.35
2023-03-12T19:45:40.862Z,49.38
2023-03-12T19:48:42.355Z,49.83
2023-03-12T19:51:43.947Z,50.08
2023-03-12T19:54:54.709Z,50.05
2023-03-12T19:58:05.090Z,49.89
2023-03-12T20:01:06.550Z,49.48
2023-03-12T20:04:08.874Z,49.80
2023-03-12T20:07:12.482Z,49.49
2023-03-12T20:10:14.190Z,49.47
2023-03-12T20:13:17.735Z,49.46
2023-03-12T20:16:20.066Z,49.79
2023-03-12T20:19:21.759Z,49.99
2023-03-12T20:22:25.597Z,49.89
2023-03-12T20:25:27.110Z,50.15
2023-03-12T20:28:28.880Z,50.12
2023-03-12T20:31:30.409Z,50.25
2023-03-12T20:34:31.886Z,50.05
2023-03-12T20:37:33.353Z,49.73
2023-03-12T20:40:35.312Z,49.82
2023-03-12T20:43:36.832Z,49.75
2023-03-12T20:46:38.304Z,49.22
2023-03-12T20:49:39.846Z,49.16
2023-03-12T20:52:43.148Z,49.57
2023-03-12T20:55:44.630Z,49.28
2023-03-12T20:58:46.111Z,49.08
2023-03-12T21:01:47.609Z,49.15
2023-03-12T21:04:49.521Z,48.97
2023-03-12T21:07:52.347Z,49.03
2023-03-12T21:10:54.426Z,49.16
2023-03-12T21:13:55.968Z,49.10
2023-03-12T21:16:57.827Z,48.83
2023-03-12T21:19:59.326Z,48.94
2023-03-12T21:23:01.020Z,48.88
2023-03-12T21:26:07.845Z,49.14
2023-03-12T21:29:10.491Z,49.16
2023-03-12T21:32:11.950Z,49.01
2023-03-12T21:35:13.391Z,49.15
2023-03-12T21:38:15.245Z,49.06
2023-03-12T21:41:18.184Z,49.42
2023-03-12T21:44:19.625Z,49.25
2023-03-12T21:47:21.071Z,49.48
2023-03-12T21:50:22.786Z,49.32
2023-03-12T21:53:24.480Z,49.15
2023-03-12T21:56:28.232Z,49.12
2023-03-12T21:59:30.231Z,49.12
2023-03-12T22:02:31.969Z,48.88
2023-03-12T22:05:33.425Z,49.21
2023-03-12T22:08:35.135Z,49.41
2023-03-12T22:11:36.919Z,49.45
2023-03-12T22:14:38.356Z,49.26
2023-03-12T22:17:39.885Z,49.58
2023-03-12T22:20:41.318Z,49.97
2023-03-12T22:23:42.907Z,50.91
2023-03-12T22:26:45.782Z,51.86
2023-03-12T22:29:47.301Z,51.38
2023-03-12T22:32:48.802Z,51.37
2023-03-12T22:35:50.368Z,51.12
2023-03-12T22:38:52.366Z,51.38
2023-03-12T22:41:53.833Z,51.89
2023-03-12T22:44:55.332Z,51.71
2023-03-12T22:47:56.785Z,51.74
2023-03-12T22:50:58.338Z,51.57
2023-03-12T22:54:00.272Z,51.74
2023-03-12T22:57:01.866Z,51.34
2023-03-12T23:00:24.251Z,51.05
2023-03-12T23:03:26.566Z,51.33
2023-03-12T23:06:29.993Z,51.11
2023-03-12T23:09:31.634Z,51.03
2023-03-12T23:12:33.113Z,50.89
2023-03-12T23:15:40.746Z,50.82
2023-03-12T23:18:44.461Z,50.66
2023-03-12T23:21:45.938Z,50.73
2023-03-12T23:24:47.375Z,50.57
2023-03-12T23:27:48.905Z,50.53
2023-03-12T23:31:01.645Z,50.64
2023-03-12T23:34:03.365Z,50.68
2023-03-12T23:37:05.115Z,51.08
2023-03-12T23:40:07.086Z,51.35
2023-03-12T23:43:08.573Z,51.76
2023-03-12T23:46:11.686Z,51.51
2023-03-12T23:49:13.215Z,51.40
2023-03-12T23:52:14.736Z,51.46
2023-03-12T23:55:17.373Z,51.42
2023-03-12T23:58:18.845Z,51.35
